AirNav   TITAN Aviation Fuels
 
 1108 users online  

KJQD Ohio County Airport
Hartford, Kentucky, USA

GOING TO HARTFORD?


FAA INFORMATION EFFECTIVE 17 JUNE 2021

Location

FAA Identifier: JQD
Lat/Long: 37-27-30.7720N 086-50-59.3670W
37-27.512867N 086-50.989450W
37.4585478,-86.8498242
(estimated)
Elevation: 537 ft. / 163.7 m (surveyed)
Variation: 02W (2000)
From city: 3 miles NE of HARTFORD, KY
Time zone: UTC -5 (UTC -6 during Standard Time)
Zip code: 42320

Airport Operations

Airport use: Open to the public
Activation date: 06/1984
Control tower: no
ARTCC: INDIANAPOLIS CENTER
FSS: LOUISVILLE FLIGHT SERVICE STATION
NOTAMs facility: LOU (NOTAM-D service available)
Attendance: MON - FRI 0900-1700
SVC AFT HR CTC AMGR.
Wind indicator: lighted
Segmented circle: yes
Lights: DUSK-DAWN ACTVT PAPI RWY 03 & 21; MIRL RWY 03/21 - CTAF.
Beacon: white-green (lighted land airport)
Operates sunset to sunrise.

Airport Communications

CTAF/UNICOM: 122.8
WX AWOS-3PT: 132.1 (270-298-7936)
EVANSVILLE APPROACH: 124.025
EVANSVILLE DEPARTURE: 124.025
  • APCH/DEP SVC PRVDD BY INDIANAPOLIS ARTCC 0N FREQS 128.3/284.65 (EVANSVILLE RCAG) WHEN EVANSVILLE APCH CTL CLSD.

Nearby radio navigation aids

VOR radial/distance  VOR name  Freq  Var
OWBr143/22.8OWENSBORO VOR/DME108.6004W
MYSr229/(38.8)MYSTIC VOR108.2001W

Airport Services

Fuel available: 100LL
Parking: hangars and tiedowns
Airframe service: MAJOR
Powerplant service: MAJOR
Bulk oxygen: NONE

Runway Information

Runway 3/21

Dimensions: 5003 x 75 ft. / 1525 x 23 m
Surface: asphalt, in fair condition
Weight bearing capacity: 
PCN 10 /F/D/X/T
Single wheel: 27.0
Runway edge lights: medium intensity
RUNWAY 3  RUNWAY 21
Latitude: 37-27.138372N37-27.887367N
Longitude: 086-51.205412W086-50.773437W
Elevation: 530.1 ft.537.0 ft.
Traffic pattern: leftleft
Runway heading: 027 magnetic, 025 true207 magnetic, 205 true
Markings: nonprecision, in fair conditionnonprecision, in fair condition
Visual slope indicator: 2-light PAPI on left (3.00 degrees glide path)2-light PAPI on left (3.50 degrees glide path)
Runway end identifier lights: yesyes
Touchdown point: yes, no lightsyes, no lights
Obstructions: 27 ft. trees, 590 ft. from runway, 133 ft. left of centerline, 14:1 slope to clear71 ft. trees, 1305 ft. from runway, 413 ft. right of centerline, 15:1 slope to clear

Airport Ownership and Management from official FAA records

Ownership: Publicly-owned
Owner: OHIO COUNTY AIRPORT BOARD
340 AIRPORT ROAD
HARTFORD, KY 42347
Phone 270-298-3500
Manager: DAVID WOOSLEY
340 AIRPORT ROAD
HARTFORD, KY 42347
Phone 270-993-0867

Airport Operational Statistics

Aircraft based on the field: 15
Single engine airplanes: 14
Multi engine airplanes: 1
    
Aircraft operations: avg 22/day *
56% transient general aviation
38% local general aviation
4% air taxi
2% military
* for 12-month period ending 18 November 2020

Additional Remarks

FOR CD CTC EVANSVILLE APCH AT 812-436-4690, WHEN APCH CLSD CTC INDIANAPOLIS ARTCC AT 317-247-2411.

Instrument Procedures

NOTE: All procedures below are presented as PDF files. If you need a reader for these files, you should download the free Adobe Reader.

NOT FOR NAVIGATION. Please procure official charts for flight.
FAA instrument procedures published for use from 17 June 2021 at 0901Z to 15 July 2021 at 0900Z.

 
IAPs - Instrument Approach Procedures
RNAV (GPS) RWY 03   download (223KB)
RNAV (GPS) RWY 21   download (246KB)
NOTE: Special Alternate Minimums apply   download (150KB)
NOTE: Special Take-Off Minimums/Departure Procedures apply   download (126KB)

Other nearby airports with instrument procedures:

M21 - Muhlenberg County Airport (20 nm SW)
KOWB - Owensboro-Daviess County Regional Airport (23 nm NW)
2I0 - Madisonville Regional Airport (27 nm W)
I93 - Breckinridge County Airport (28 nm NE)
M20 - Leitchfield-Grayson County Airport (28 nm E)
 
Loc | Ops | Rwys | IFR | FBO | Links
Com | Nav | Svcs | Stats | Notes
Area around KJQD (Ohio County Airport)
 
Road maps at: MapQuest Bing Google
 
Aerial photo
WARNING: Photo may not be current or correct
Aerial photo of KJQD (Ohio County Airport)
Do you have a better or more recent aerial photo of Ohio County Airport that you would like to share? If so, please send us your photo.

 
Sectional chart

 
Airport distance calculator
Flying to Ohio County Airport? Find the distance to fly.

From to KJQD

Sunrise and sunset
Times for 19-Jun-2021
 Local
(UTC-5)
 Zulu
(UTC)
Morning civil twilight04:5609:56
Sunrise05:2710:27
Sunset20:1001:10
Evening civil twilight20:4101:41

Current date and time
Zulu (UTC)  19-Jun-2021 17:18:41
Local (UTC-5)  19-Jun-2021 12:18:41
 
METAR
KM21 
20nm SW 
191655Z AUTO 20007KT SCT031 29/21 A2997 RMK AO2 T02880214 PWINO
KOWB 
22nm NW 
191656Z 23009KT 10SM SCT065 29/21 A2994 RMK AO2 SLP137 T02940206
K2I0 
27nm W 
191635Z AUTO 19003KT 10SM SCT023 SCT028 29/21 A2998 RMK AO2 T02880207
KKY8 
30nm N 
191655Z AUTO 04009G17KT 10SM SCT028 BKN037 BKN043 24/21 A2995 RMK A01
KBWG 
36nm SE 
191653Z AUTO 23010KT 10SM CLR 30/21 A3000 RMK AO2 SLP151 T03000206
TAF
KOWB 
22nm NW 
191616Z 1916/2012 22008KT P6SM SCT200 FM191645 VRB06G15KT P6SM SCT060 FM191800 20010KT P6SM SCT050 BKN200 FM200200 19006KT P6SM SCT200
NOTAMs
Click for the latest NOTAMs
NOTAMs are issued by the DoD/FAA and will open in a separate window not controlled by AirNav.

 

 
 

FBO, Fuel Providers, and Aircraft Ground Support

  
 Business Name 
 
 Contact 
 
 Services / Description 
 
Fuel Prices
 
Comments
  
Leading Edge Aircraft Services, LLC 270-993-0867
no information available

If you are affiliated with Leading Edge Aircraft Services, LLC and would like to show here your services, contact info, web link, logo, and more, click here
100LL
SS $3.80 
 Updated 08-Jun-2021
 
   1 read write
SS=Self service
Update Fuel Prices
 

Would you like to see your business listed on this page?

 If your business provides an interesting product or service to pilots, flight crews, aircraft, or users of the Ohio County Airport, you should consider listing it here.  To start the listing process, click on the button below
 
Add a business
 

Other Pages about Ohio County Airport

Update a link
 
Copyright © AirNav, LLC. All rights reserved. Privacy Policy  Contact